Terminal Aerodrome Forecast
Issued by NWS

Home | Current Version | Previous Version | Text Only | Print | Product List | Glossary On
Versions: 1 2 3 4 5 6 7 8 9 10 11 12 13 14 15 16 17 18 19 20 21 22 23 24 25 26 27 28 29 30
000
FTUS43 KPAH 291124
TAFOWB
TAF
KOWB 291124Z 2912/3012 25003KT P6SM VCTS SCT040CB SCT100
      TEMPO 2912/2914 3SM TSRA BR BKN025CB
     FM291500 25005KT P6SM FEW035
     FM291900 29007KT P6SM SCT040
     FM300000 33006KT P6SM VCTS SCT035CB BKN100
     FM300300 35004KT P6SM SCT100=

USA.gov is the U.S. government's official web portal to all federal, state and local government web resources and services.